Time;durP1;ratioP1;P1;durP2;ratioP2;P2;SDS_P1;SDS_P2;PMS_P1;PMS_P2;Temp;Humidity;BMP_temperature;BMP_pressure;BME280_temperature;BME280_humidity;BME280_pressure;Samples;Min_cycle;Max_cycle;Signal;HPM_P1;HPM_P2
2021/08/16 00:01:14;;;;;;;57.83;2.70;;;18.40;99.90;;;;;;5071094;28;21059;-69
2021/08/16 00:03:41;;;;;;;58.07;2.67;;;18.40;99.90;;;;;;5072705;28;20475;-69
2021/08/16 00:06:08;;;;;;;58.07;2.80;;;18.40;99.90;;;;;;5074937;28;20443;-69
2021/08/16 00:08:36;;;;;;;59.17;3.70;;;18.40;99.90;;;;;;5075120;28;20538;-69
2021/08/16 00:11:04;;;;;;;57.97;2.80;;;18.40;99.90;;;;;;5074813;28;20464;-69
2021/08/16 00:13:31;;;;;;;58.37;2.90;;;18.40;99.90;;;;;;5075046;28;20872;-69
2021/08/16 00:15:58;;;;;;;58.27;3.03;;;18.40;99.90;;;;;;5074695;28;20573;-69
2021/08/16 00:18:25;;;;;;;57.93;2.90;;;18.50;99.90;;;;;;5074997;28;20509;-69
2021/08/16 00:20:52;;;;;;;58.27;2.70;;;18.50;99.90;;;;;;5074483;28;20473;-69
2021/08/16 00:23:19;;;;;;;58.07;2.90;;;18.40;99.90;;;;;;5074918;28;20534;-69
2021/08/16 00:25:47;;;;;;;58.00;2.70;;;18.50;99.90;;;;;;5074804;28;20927;-69
2021/08/16 00:28:14;;;;;;;58.60;3.80;;;18.50;99.90;;;;;;5074847;28;20447;-69
2021/08/16 00:30:42;;;;;;;58.07;2.70;;;18.50;99.90;;;;;;5074268;28;20491;-69
2021/08/16 00:33:09;;;;;;;58.40;2.90;;;18.40;99.90;;;;;;5074557;28;20448;-69
2021/08/16 00:35:36;;;;;;;58.30;2.80;;;18.50;99.90;;;;;;5074686;28;20561;-69
2021/08/16 00:38:03;;;;;;;58.03;2.50;;;18.50;99.90;;;;;;5074665;28;20443;-69
2021/08/16 00:40:30;;;;;;;57.57;2.90;;;18.40;99.90;;;;;;5074340;28;20447;-70
2021/08/16 00:42:59;;;;;;;58.03;2.60;;;18.50;99.90;;;;;;5074325;28;21042;-70
2021/08/16 00:45:26;;;;;;;57.87;2.70;;;18.50;99.90;;;;;;5074683;28;20475;-70
2021/08/16 00:47:53;;;;;;;57.77;2.70;;;18.40;99.90;;;;;;5074620;28;20534;-70
2021/08/16 00:50:20;;;;;;;57.67;2.63;;;18.40;99.90;;;;;;5073965;28;20961;-70
2021/08/16 00:52:47;;;;;;;57.67;2.67;;;18.40;99.90;;;;;;5074258;28;20470;-70
2021/08/16 00:55:15;;;;;;;57.97;3.00;;;18.40;99.90;;;;;;5074268;28;20456;-70
2021/08/16 00:57:42;;;;;;;57.93;2.70;;;18.40;99.90;;;;;;5074167;28;20452;-70
2021/08/16 01:00:12;;;;;;;61.23;3.00;;;18.40;99.90;;;;;;5074067;28;20822;-70
2021/08/16 01:02:40;;;;;;;58.37;3.00;;;18.50;99.90;;;;;;5074371;28;20463;-70
2021/08/16 01:05:10;;;;;;;58.10;2.50;;;18.50;99.90;;;;;;5074033;28;20452;-70
2021/08/16 01:07:37;;;;;;;58.17;2.80;;;18.40;99.90;;;;;;5074001;28;20494;-70
2021/08/16 01:10:06;;;;;;;58.30;2.80;;;18.40;99.90;;;;;;5073700;28;20487;-71
2021/08/16 01:12:34;;;;;;;57.83;3.20;;;18.40;99.90;;;;;;5074335;28;20467;-71
2021/08/16 01:15:01;;;;;;;58.37;3.53;;;18.40;99.90;;;;;;5074098;28;20455;-71
2021/08/16 01:17:30;;;;;;;58.13;3.20;;;18.40;99.90;;;;;;5073852;28;20519;-70
2021/08/16 01:19:57;;;;;;;58.60;3.07;;;18.40;99.90;;;;;;5074073;28;20486;-71
2021/08/16 01:22:24;;;;;;;57.93;2.63;;;18.40;99.90;;;;;;5073884;28;20879;-71
2021/08/16 01:24:51;;;;;;;58.63;3.20;;;18.40;99.90;;;;;;5073764;28;20537;-70
2021/08/16 01:27:19;;;;;;;58.30;3.00;;;18.40;99.90;;;;;;5073872;28;20475;-70
2021/08/16 01:29:46;;;;;;;60.50;4.23;;;18.40;99.90;;;;;;5073680;28;20533;-70
2021/08/16 01:32:13;;;;;;;57.97;2.80;;;18.40;99.90;;;;;;5073565;28;21063;-70
2021/08/16 01:34:40;;;;;;;58.50;3.10;;;18.40;99.90;;;;;;5073614;28;20490;-70
2021/08/16 01:37:07;;;;;;;58.30;2.63;;;18.40;99.90;;;;;;5073207;28;20566;-70
2021/08/16 01:39:34;;;;;;;57.63;2.80;;;18.40;99.90;;;;;;5073138;28;20451;-70
2021/08/16 01:42:01;;;;;;;58.57;2.80;;;18.40;99.90;;;;;;5072367;28;20467;-70
2021/08/16 01:44:29;;;;;;;57.67;2.80;;;18.40;99.90;;;;;;5073452;28;20450;-70
2021/08/16 01:46:56;;;;;;;58.50;3.10;;;18.40;99.90;;;;;;5073145;28;20944;-70
2021/08/16 01:49:23;;;;;;;58.20;2.60;;;18.40;99.90;;;;;;5072726;28;20490;-70
2021/08/16 01:51:50;;;;;;;58.70;3.10;;;18.30;99.90;;;;;;5073067;28;20533;-70
2021/08/16 01:54:19;;;;;;;58.10;2.80;;;18.40;99.90;;;;;;5073276;28;20827;-70
2021/08/16 01:56:46;;;;;;;58.10;2.70;;;18.40;99.90;;;;;;5073329;28;20486;-70
2021/08/16 01:59:13;;;;;;;58.27;3.33;;;18.30;99.90;;;;;;5072715;28;20443;-70
2021/08/16 02:01:42;;;;;;;58.20;2.87;;;18.30;99.90;;;;;;5072811;28;20463;-70
2021/08/16 02:04:08;;;;;;;58.50;3.07;;;18.30;99.90;;;;;;5072809;28;20487;-70
2021/08/16 02:06:35;;;;;;;58.20;3.17;;;18.30;99.90;;;;;;5072819;28;20967;-70
2021/08/16 02:09:02;;;;;;;58.23;3.30;;;18.30;99.90;;;;;;5072751;28;20449;-70
2021/08/16 02:11:29;;;;;;;58.37;3.07;;;18.30;99.90;;;;;;5072852;28;20907;-71
2021/08/16 02:13:56;;;;;;;57.77;3.40;;;18.30;99.90;;;;;;5072946;28;21055;-70
2021/08/16 02:16:23;;;;;;;58.80;2.80;;;18.30;99.90;;;;;;5072521;28;20541;-70
2021/08/16 02:18:51;;;;;;;58.10;2.90;;;18.30;99.90;;;;;;5072574;28;20451;-70
2021/08/16 02:21:18;;;;;;;58.10;3.10;;;18.30;99.90;;;;;;5072480;28;20507;-70
2021/08/16 02:23:45;;;;;;;58.70;3.30;;;18.30;99.90;;;;;;5072698;28;20478;-70
2021/08/16 02:26:12;;;;;;;57.97;3.20;;;18.40;99.90;;;;;;5071803;28;20979;-70
2021/08/16 02:28:39;;;;;;;58.60;3.53;;;18.40;99.90;;;;;;5072655;28;20447;-70
2021/08/16 02:31:06;;;;;;;58.10;3.00;;;18.40;99.90;;;;;;5072396;28;20470;-71
2021/08/16 02:33:33;;;;;;;58.07;2.73;;;18.50;99.90;;;;;;5072653;28;20823;-70
2021/08/16 02:36:01;;;;;;;58.27;2.77;;;18.50;99.90;;;;;;5072434;28;20521;-70
2021/08/16 02:38:28;;;;;;;57.83;2.87;;;18.50;99.90;;;;;;5072234;28;20448;-69
2021/08/16 02:40:55;;;;;;;58.50;3.40;;;18.50;99.90;;;;;;5071973;28;20459;-70
2021/08/16 02:43:22;;;;;;;58.50;3.50;;;18.60;99.90;;;;;;5072245;28;20471;-69
2021/08/16 02:45:49;;;;;;;57.67;2.43;;;18.60;99.90;;;;;;5072262;28;20502;-69
2021/08/16 02:48:15;;;;;;;58.20;3.40;;;18.60;99.90;;;;;;5072315;28;20529;-70
2021/08/16 02:50:42;;;;;;;57.77;3.07;;;18.60;99.90;;;;;;5071920;28;20531;-70
2021/08/16 02:53:10;;;;;;;58.30;2.77;;;18.60;99.90;;;;;;5072212;28;20856;-70
2021/08/16 02:55:37;;;;;;;58.10;2.80;;;18.70;99.90;;;;;;5072082;28;21038;-70
2021/08/16 02:58:04;;;;;;;57.77;2.57;;;18.70;99.90;;;;;;5072287;28;20514;-70
2021/08/16 03:00:31;;;;;;;57.90;2.60;;;18.70;99.90;;;;;;5071944;28;20884;-70
2021/08/16 03:02:58;;;;;;;58.17;2.67;;;18.70;99.90;;;;;;5071871;28;20542;-70
2021/08/16 03:05:25;;;;;;;58.70;3.93;;;18.80;99.90;;;;;;5071933;28;20550;-70
2021/08/16 03:07:52;;;;;;;57.90;2.70;;;18.90;99.90;;;;;;5071901;28;20869;-70
2021/08/16 03:10:21;;;;;;;58.30;2.80;;;18.90;99.90;;;;;;5071584;28;20530;-70
2021/08/16 03:12:47;;;;;;;58.00;2.60;;;19.00;99.90;;;;;;5072079;28;20468;-70
2021/08/16 03:15:14;;;;;;;57.73;2.73;;;19.00;99.90;;;;;;5072325;28;20471;-70
2021/08/16 03:17:42;;;;;;;58.30;2.70;;;19.00;99.90;;;;;;5071715;28;20928;-69
2021/08/16 03:20:11;;;;;;;58.10;3.43;;;19.00;99.90;;;;;;5071689;28;20444;-69
2021/08/16 03:22:38;;;;;;;57.80;3.37;;;19.00;99.90;;;;;;5071828;28;20474;-70
2021/08/16 03:25:06;;;;;;;58.30;3.00;;;19.00;99.90;;;;;;5071618;28;20589;-70
2021/08/16 03:27:34;;;;;;;57.77;2.70;;;19.10;99.90;;;;;;5071840;28;20450;-70
2021/08/16 03:30:02;;;;;;;58.10;3.13;;;19.10;99.90;;;;;;5071614;28;20443;-70
2021/08/16 03:32:29;;;;;;;58.07;3.03;;;19.10;99.90;;;;;;5071600;28;20562;-70
2021/08/16 03:34:56;;;;;;;58.50;3.17;;;19.10;99.90;;;;;;5071863;28;20452;-70
2021/08/16 03:37:23;;;;;;;58.50;2.83;;;19.10;99.90;;;;;;5072423;28;20511;-70
2021/08/16 03:39:50;;;;;;;58.23;3.40;;;19.10;99.90;;;;;;5075452;28;20447;-70
2021/08/16 03:42:17;;;;;;;57.90;3.03;;;19.10;99.90;;;;;;5075522;28;20474;-70
2021/08/16 03:44:45;;;;;;;58.23;3.00;;;19.10;99.90;;;;;;5075827;28;20451;-70
2021/08/16 03:47:12;;;;;;;58.07;2.90;;;19.10;99.90;;;;;;5075641;28;20440;-70
2021/08/16 03:49:39;;;;;;;58.20;2.90;;;19.20;99.90;;;;;;5075513;28;20480;-70
2021/08/16 03:52:07;;;;;;;58.10;3.03;;;19.20;99.90;;;;;;5075392;28;20883;-70
2021/08/16 03:54:34;;;;;;;58.40;3.20;;;19.30;99.90;;;;;;5075390;28;20523;-69
2021/08/16 03:57:01;;;;;;;57.43;2.97;;;19.30;99.90;;;;;;5075322;28;20576;-69
2021/08/16 03:59:27;;;;;;;58.10;3.00;;;19.30;99.90;;;;;;5075203;28;20833;-70
2021/08/16 04:01:57;;;;;;;58.27;3.03;;;19.30;99.90;;;;;;5075312;28;20555;-69
2021/08/16 04:04:24;;;;;;;58.07;3.13;;;19.30;99.90;;;;;;5075330;28;20459;-70
2021/08/16 04:06:52;;;;;;;58.63;3.10;;;19.30;99.90;;;;;;5075204;28;20541;-70
2021/08/16 04:09:19;;;;;;;58.17;3.70;;;19.30;99.90;;;;;;5074918;28;20453;-70
2021/08/16 04:11:46;;;;;;;59.03;3.30;;;;;;;;;;5074889;28;21095;-70
2021/08/16 04:14:13;;;;;;;58.17;2.83;;;19.30;99.90;;;;;;5075162;28;20458;-70
2021/08/16 04:16:42;;;;;;;58.70;3.00;;;19.20;99.90;;;;;;5074875;28;21013;-70
2021/08/16 04:19:10;;;;;;;57.87;2.50;;;19.20;99.90;;;;;;5074593;28;20453;-69
2021/08/16 04:21:37;;;;;;;57.57;2.50;;;19.20;99.90;;;;;;5074708;28;20473;-70
2021/08/16 04:24:04;;;;;;;58.10;2.60;;;19.10;99.90;;;;;;5075145;28;20545;-70
2021/08/16 04:26:31;;;;;;;58.77;3.00;;;19.00;99.90;;;;;;5074815;28;20539;-69
2021/08/16 04:28:58;;;;;;;58.60;3.00;;;19.00;99.90;;;;;;5074930;28;20451;-70
2021/08/16 04:31:25;;;;;;;57.87;2.90;;;19.00;99.90;;;;;;5074476;28;20560;-70
2021/08/16 04:33:52;;;;;;;58.17;2.90;;;18.90;99.90;;;;;;5074807;28;20443;-69
2021/08/16 04:36:21;;;;;;;59.47;3.43;;;18.90;99.90;;;;;;5074669;28;20535;-70
2021/08/16 04:38:48;;;;;;;58.30;2.80;;;18.90;99.90;;;;;;5074528;28;20447;-70
2021/08/16 04:41:15;;;;;;;58.43;3.00;;;18.90;99.90;;;;;;5074391;28;20902;-70
2021/08/16 04:43:41;;;;;;;58.40;3.33;;;18.90;99.90;;;;;;5074620;28;20884;-69
2021/08/16 04:46:08;;;;;;;58.10;2.60;;;18.90;99.90;;;;;;5074269;28;20875;-69
2021/08/16 04:48:35;;;;;;;59.47;4.33;;;19.10;99.90;;;;;;5074366;28;20450;-69
2021/08/16 04:51:02;;;;;;;57.87;2.63;;;19.10;99.90;;;;;;5073700;28;21026;-69
2021/08/16 04:53:31;;;;;;;57.67;2.30;;;19.10;99.90;;;;;;5074292;28;20539;-69
2021/08/16 04:55:57;;;;;;;58.67;2.90;;;19.20;99.90;;;;;;5074573;28;20447;-69
2021/08/16 04:58:24;;;;;;;58.17;3.00;;;19.20;99.90;;;;;;5074638;28;21015;-69
2021/08/16 05:00:51;;;;;;;57.97;3.10;;;19.20;99.90;;;;;;5073740;28;20480;-69
2021/08/16 05:03:18;;;;;;;57.87;2.90;;;19.30;99.90;;;;;;5074381;28;20543;-70
2021/08/16 05:05:48;;;;;;;58.30;2.70;;;19.30;99.90;;;;;;5074322;28;20531;-70
2021/08/16 05:08:15;;;;;;;59.10;4.30;;;19.40;99.90;;;;;;5074135;28;20943;-69
2021/08/16 05:10:44;;;;;;;58.30;2.77;;;19.40;99.90;;;;;;5073770;28;20449;-70
2021/08/16 05:13:10;;;;;;;58.30;3.20;;;19.50;99.90;;;;;;5073826;28;20474;-69
2021/08/16 05:15:37;;;;;;;58.10;2.70;;;19.50;99.90;;;;;;5073871;28;20461;-69
2021/08/16 05:18:04;;;;;;;58.27;2.70;;;19.50;99.90;;;;;;5073746;28;20485;-70
2021/08/16 05:20:35;;;;;;;58.47;3.17;;;19.60;99.90;;;;;;5073725;28;20534;-70
2021/08/16 05:23:02;;;;;;;58.10;3.63;;;19.60;99.90;;;;;;5073751;28;20551;-70
2021/08/16 05:25:29;;;;;;;57.87;2.50;;;19.70;99.30;;;;;;5073835;28;20449;-69
2021/08/16 05:27:57;;;;;;;59.17;3.50;;;19.70;97.70;;;;;;5073424;28;20539;-70
2021/08/16 05:30:24;;;;;;;57.77;2.60;;;19.70;97.90;;;;;;5073223;28;20452;-69
2021/08/16 05:32:52;;;;;;;58.10;2.50;;;19.70;95.90;;;;;;5073697;28;20469;-69
2021/08/16 05:35:19;;;;;;;57.77;2.70;;;19.70;93.20;;;;;;5073634;28;20475;-69
2021/08/16 05:37:45;;;;;;;58.20;3.10;;;19.70;92.40;;;;;;5073418;28;20844;-71
2021/08/16 05:40:13;;;;;;;59.77;2.77;;;19.80;89.60;;;;;;5073124;28;20446;-70
2021/08/16 05:42:40;;;;;;;58.30;3.30;;;19.70;86.00;;;;;;5073419;28;20572;-70
2021/08/16 05:45:09;;;;;;;58.47;3.10;;;19.90;74.40;;;;;;5073200;28;20536;-70
2021/08/16 05:47:36;;;;;;;58.20;3.03;;;19.80;72.90;;;;;;5073297;28;20452;-70
2021/08/16 05:50:05;;;;;;;57.97;2.47;;;19.80;73.20;;;;;;5073263;28;20547;-70
2021/08/16 05:52:32;;;;;;;58.57;3.10;;;19.80;74.70;;;;;;5073257;28;20481;-70
2021/08/16 05:54:59;;;;;;;58.77;2.90;;;19.80;73.00;;;;;;5072987;28;20466;-70
2021/08/16 05:57:27;;;;;;;58.00;2.50;;;19.70;72.50;;;;;;5073096;28;20573;-70
2021/08/16 05:59:53;;;;;;;58.20;2.43;;;19.70;69.50;;;;;;5073418;28;20449;-70
2021/08/16 06:02:22;;;;;;;58.57;3.20;;;19.70;69.80;;;;;;5073046;28;20473;-70
2021/08/16 06:04:48;;;;;;;58.07;2.90;;;19.80;70.30;;;;;;5072901;28;20500;-70
2021/08/16 06:07:15;;;;;;;58.27;2.40;;;19.80;70.50;;;;;;5072887;28;20549;-70
2021/08/16 06:09:42;;;;;;;58.80;3.23;;;19.80;71.80;;;;;;5072594;28;20445;-70
2021/08/16 06:12:09;;;;;;;57.97;3.00;;;19.80;72.90;;;;;;5072716;28;21000;-70
2021/08/16 06:14:37;;;;;;;58.50;2.77;;;19.90;45.50;;;;;;5072900;28;20527;-70
2021/08/16 06:17:05;;;;;;;57.87;2.70;;;19.90;27.90;;;;;;5072791;28;20454;-70
2021/08/16 06:19:33;;;;;;;58.03;3.03;;;19.90;1.00;;;;;;5072534;28;20488;-70
2021/08/16 06:22:00;;;;;;;58.03;2.70;;;19.80;13.00;;;;;;5072436;28;20473;-70
2021/08/16 06:24:27;;;;;;;57.70;2.47;;;19.90;1.00;;;;;;5072663;28;20972;-70
2021/08/16 06:26:54;;;;;;;57.90;3.13;;;19.90;1.00;;;;;;5072715;28;20489;-70
2021/08/16 06:29:21;;;;;;;58.40;2.70;;;19.90;1.00;;;;;;5072317;28;20454;-70
2021/08/16 06:31:47;;;;;;;57.97;2.43;;;20.00;1.00;;;;;;5072488;28;20466;-70
2021/08/16 06:34:14;;;;;;;58.20;2.90;;;20.00;1.00;;;;;;5072619;28;20560;-70
2021/08/16 06:36:43;;;;;;;58.40;3.33;;;20.00;1.00;;;;;;5072275;28;20534;-70
2021/08/16 06:39:18;;;;;;;58.27;2.57;;;20.10;1.00;;;;;;5072144;28;20483;-70
2021/08/16 06:41:45;;;;;;;58.47;2.90;;;20.10;1.00;;;;;;5072396;28;20473;-69
2021/08/16 06:44:12;;;;;;;58.47;3.00;;;20.20;1.00;;;;;;5072374;28;20537;-69
2021/08/16 06:46:40;;;;;;;58.20;2.57;;;20.30;1.00;;;;;;5072124;28;20486;-69
2021/08/16 06:49:07;;;;;;;57.83;2.70;;;20.30;1.00;;;;;;5071738;28;20791;-69
2021/08/16 06:51:33;;;;;;;60.40;3.77;;;20.40;1.00;;;;;;5072317;28;20466;-69
2021/08/16 06:54:02;;;;;;;58.03;2.50;;;20.40;1.00;;;;;;5072402;28;20544;-69
2021/08/16 06:56:29;;;;;;;57.80;2.57;;;20.40;1.00;;;;;;5072263;28;20443;-69
2021/08/16 06:58:55;;;;;;;58.40;3.57;;;20.40;1.00;;;;;;5072004;28;20490;-69
2021/08/16 07:01:23;;;;;;;57.90;2.67;;;20.40;1.00;;;;;;5071825;28;20499;-69
2021/08/16 07:03:50;;;;;;;58.27;3.20;;;20.50;1.00;;;;;;5072003;28;20497;-69
2021/08/16 07:06:17;;;;;;;58.07;2.47;;;20.40;1.00;;;;;;5072114;28;20446;-69
2021/08/16 07:08:44;;;;;;;58.27;2.80;;;20.30;1.00;;;;;;5072132;28;20867;-69
2021/08/16 07:11:12;;;;;;;58.03;2.50;;;20.30;1.00;;;;;;5071626;28;20470;-69
2021/08/16 07:13:39;;;;;;;58.00;2.93;;;20.30;1.00;;;;;;5071538;28;20461;-69
2021/08/16 07:16:07;;;;;;;58.70;2.70;;;20.10;1.00;;;;;;5071745;28;20451;-69
2021/08/16 07:18:35;;;;;;;58.20;3.10;;;20.00;1.00;;;;;;5071656;28;20573;-69
2021/08/16 07:21:02;;;;;;;58.00;2.70;;;20.00;1.00;;;;;;5071714;28;20493;-69
2021/08/16 07:23:30;;;;;;;58.20;3.23;;;20.10;1.00;;;;;;5071712;28;20453;-69
2021/08/16 07:25:58;;;;;;;57.87;2.50;;;20.30;1.00;;;;;;5071594;28;20454;-69
2021/08/16 07:28:27;;;;;;;57.87;2.47;;;20.30;1.00;;;;;;5071913;28;20470;-69
2021/08/16 07:30:54;;;;;;;58.00;2.40;;;20.30;1.00;;;;;;5071335;28;20483;-69
2021/08/16 07:33:21;;;;;;;58.20;2.97;;;20.30;1.00;;;;;;5071651;28;20446;-69
2021/08/16 07:35:48;;;;;;;59.00;3.90;;;20.40;1.00;;;;;;5071875;28;20538;-69
2021/08/16 07:38:15;;;;;;;57.77;2.40;;;20.40;1.00;;;;;;5071673;28;20514;-69
2021/08/16 07:40:42;;;;;;;63.80;2.70;;;20.30;1.00;;;;;;5071237;28;20456;-69
2021/08/16 07:43:09;;;;;;;58.27;2.60;;;20.30;1.00;;;;;;5071907;28;20453;-69
2021/08/16 07:45:37;;;;;;;58.17;3.13;;;20.30;1.00;;;;;;5071535;28;20545;-69
2021/08/16 07:48:05;;;;;;;58.00;2.93;;;20.30;1.00;;;;;;5071744;28;20438;-69
2021/08/16 07:50:33;;;;;;;58.03;2.50;;;20.30;1.00;;;;;;5071505;28;20534;-69
2021/08/16 07:53:00;;;;;;;57.63;2.87;;;20.30;1.00;;;;;;5071615;28;20542;-69
2021/08/16 07:55:27;;;;;;;57.77;2.70;;;20.40;1.00;;;;;;5071739;28;20529;-69
2021/08/16 07:57:54;;;;;;;57.77;2.60;;;20.40;1.00;;;;;;5071154;28;20573;-69
2021/08/16 08:00:20;;;;;;;57.77;2.30;;;20.60;1.00;;;;;;5071411;28;20457;-69
2021/08/16 08:02:50;;;;;;;57.80;2.80;;;20.70;1.00;;;;;;5071475;28;20465;-69
2021/08/16 08:05:19;;;;;;;58.07;3.00;;;20.70;1.00;;;;;;5071633;28;20466;-69
2021/08/16 08:07:46;;;;;;;62.30;3.43;;;20.80;1.00;;;;;;5071377;28;20448;-68
2021/08/16 08:10:15;;;;;;;58.17;2.73;;;20.80;1.00;;;;;;5071241;28;20530;-69
2021/08/16 08:12:42;;;;;;;58.10;2.50;;;20.80;1.00;;;;;;5071696;28;20471;-69
2021/08/16 08:15:10;;;;;;;58.10;2.40;;;20.70;1.00;;;;;;5071675;28;20541;-68
2021/08/16 08:17:37;;;;;;;58.87;2.40;;;20.70;1.00;;;;;;5071169;28;20488;-69
2021/08/16 08:20:07;;;;;;;58.07;2.70;;;20.70;1.00;;;;;;5071311;28;20447;-69
2021/08/16 08:22:35;;;;;;;57.90;2.70;;;20.60;1.00;;;;;;5071225;28;20553;-69
2021/08/16 08:25:03;;;;;;;57.80;2.40;;;20.60;1.00;;;;;;5072690;28;20451;-69
2021/08/16 08:27:30;;;;;;;58.00;2.53;;;20.50;1.00;;;;;;5074870;28;20448;-68
2021/08/16 08:29:57;;;;;;;58.30;2.87;;;20.60;1.00;;;;;;5074751;28;20447;-68
2021/08/16 08:32:24;;;;;;;58.00;2.50;;;20.60;1.00;;;;;;5074945;28;20473;-69
2021/08/16 08:34:51;;;;;;;57.27;2.60;;;20.70;1.00;;;;;;5074826;28;20486;-68
2021/08/16 08:37:19;;;;;;;59.07;2.87;;;20.70;1.00;;;;;;5074722;28;20943;-68
2021/08/16 08:39:46;;;;;;;57.87;3.03;;;20.90;1.00;;;;;;5074048;28;20488;-68
2021/08/16 08:42:14;;;;;;;57.57;2.23;;;21.20;1.00;;;;;;5074720;28;20474;-68
2021/08/16 08:44:43;;;;;;;57.87;2.43;;;21.30;1.00;;;;;;5074614;28;20540;-69
2021/08/16 08:47:12;;;;;;;57.97;2.47;;;21.40;1.00;;;;;;5074305;28;20443;-69
2021/08/16 08:49:40;;;;;;;57.40;2.47;;;21.50;1.00;;;;;;5074090;28;20475;-69
2021/08/16 08:52:07;;;;;;;58.40;3.10;;;21.70;1.00;;;;;;5074221;28;21051;-69
2021/08/16 08:54:36;;;;;;;57.97;2.30;;;21.60;1.00;;;;;;5074453;28;20542;-69
2021/08/16 08:57:04;;;;;;;58.50;2.70;;;21.50;1.00;;;;;;5074402;28;20447;-70
2021/08/16 08:59:31;;;;;;;58.20;2.70;;;21.30;1.00;;;;;;5074195;28;20505;-68
2021/08/16 09:01:59;;;;;;;57.73;2.97;;;21.20;1.00;;;;;;5074374;28;20477;-68
2021/08/16 09:04:26;;;;;;;58.20;2.30;;;21.00;1.00;;;;;;5074162;28;20502;-69
2021/08/16 09:06:53;;;;;;;58.13;2.90;;;21.00;1.00;;;;;;5074411;28;20443;-69
2021/08/16 09:09:20;;;;;;;58.07;2.40;;;21.10;1.00;;;;;;5074138;28;20440;-69
2021/08/16 09:11:50;;;;;;;57.83;2.57;;;21.20;1.00;;;;;;5074132;28;20463;-68
2021/08/16 09:14:18;;;;;;;58.27;2.97;;;21.20;1.00;;;;;;5074067;28;20509;-68
2021/08/16 09:16:47;;;;;;;57.97;2.40;;;21.40;1.00;;;;;;5074016;28;20443;-68
2021/08/16 09:19:16;;;;;;;60.47;3.47;;;21.60;1.00;;;;;;5073409;28;20509;-68
2021/08/16 09:21:46;;;;;;;58.30;2.90;;;21.80;1.00;;;;;;5073715;28;20975;-68
2021/08/16 09:24:13;;;;;;;58.70;2.50;;;22.00;1.00;;;;;;5074051;28;20506;-69
2021/08/16 09:26:43;;;;;;;57.77;2.30;;;21.90;1.00;;;;;;5073817;28;20454;-68
2021/08/16 09:29:13;;;;;;;58.10;2.63;;;21.90;1.00;;;;;;5073509;28;20450;-68
2021/08/16 09:31:51;;;;;;;59.27;2.70;;;21.90;1.00;;;;;;5073613;28;20557;-68
2021/08/16 09:34:28;;;;;;;58.20;2.40;;;21.90;1.00;;;;;;5073897;28;20494;-68
2021/08/16 09:36:56;;;;;;;58.30;2.20;;;21.90;1.00;;;;;;5073496;28;20443;-68
2021/08/16 09:39:24;;;;;;;57.57;2.50;;;21.80;1.00;;;;;;5073216;28;20524;-68
2021/08/16 09:41:58;;;;;;;57.97;2.30;;;22.00;1.00;;;;;;5073712;28;20471;-68
2021/08/16 09:44:27;;;;;;;58.00;2.87;;;22.10;1.00;;;;;;5073478;28;20468;-68
2021/08/16 09:47:05;;;;;;;58.37;2.87;;;22.20;1.00;;;;;;5073600;28;20470;-68
2021/08/16 09:49:33;;;;;;;57.90;2.43;;;22.20;1.00;;;;;;5073084;28;20439;-69
2021/08/16 09:52:05;;;;;;;57.97;2.33;;;22.20;1.00;;;;;;5073289;28;20828;-69
2021/08/16 09:54:33;;;;;;;58.10;2.60;;;22.00;1.00;;;;;;5073340;28;20460;-69
2021/08/16 09:57:02;;;;;;;57.87;2.30;;;21.90;1.00;;;;;;5073330;28;20785;-69
2021/08/16 09:59:31;;;;;;;58.07;2.50;;;21.80;1.00;;;;;;5072987;28;20899;-69
2021/08/16 10:01:58;;;;;;;58.37;2.60;;;21.70;1.00;;;;;;5073125;28;20471;-69
2021/08/16 10:04:25;;;;;;;58.53;2.70;;;21.70;1.00;;;;;;5073174;28;20574;-69
2021/08/16 10:06:54;;;;;;;58.57;2.60;;;21.60;1.00;;;;;;5072930;28;20622;-69
2021/08/16 10:09:22;;;;;;;58.07;2.30;;;21.60;1.00;;;;;;5072563;28;20444;-69
2021/08/16 10:11:50;;;;;;;58.00;2.60;;;21.70;1.00;;;;;;5072952;28;20822;-69
2021/08/16 10:14:19;;;;;;;57.67;2.40;;;21.80;1.00;;;;;;5072990;28;20831;-69
2021/08/16 10:16:49;;;;;;;58.50;2.43;;;21.90;1.00;;;;;;5072824;28;20447;-69
2021/08/16 10:19:19;;;;;;;57.93;2.30;;;22.00;1.00;;;;;;5072635;28;20888;-69
2021/08/16 10:21:47;;;;;;;58.20;2.40;;;21.90;1.00;;;;;;5072519;28;20471;-69
2021/08/16 10:24:18;;;;;;;58.50;2.60;;;21.80;1.00;;;;;;5072880;28;20509;-69
2021/08/16 10:26:56;;;;;;;58.00;2.47;;;21.80;1.00;;;;;;5072607;28;20446;-69
2021/08/16 10:29:23;;;;;;;58.27;2.57;;;22.00;1.00;;;;;;5072436;28;20439;-69
2021/08/16 10:31:53;;;;;;;57.77;2.30;;;22.10;1.00;;;;;;5072447;28;20501;-69
2021/08/16 10:34:28;;;;;;;57.97;2.80;;;22.20;1.00;;;;;;5072730;28;20457;-69
2021/08/16 10:36:56;;;;;;;57.67;2.50;;;22.20;1.00;;;;;;5072382;28;20450;-69
2021/08/16 10:39:34;;;;;;;58.20;2.50;;;22.10;1.00;;;;;;5072217;28;20826;-69
2021/08/16 10:42:06;;;;;;;57.67;2.40;;;22.10;1.00;;;;;;5072585;28;20463;-68
2021/08/16 10:44:39;;;;;;;57.80;2.20;;;22.00;1.00;;;;;;5072221;28;20530;-69
2021/08/16 10:47:08;;;;;;;58.07;2.90;;;22.00;1.00;;;;;;5071768;28;20443;-69
2021/08/16 10:49:36;;;;;;;57.67;2.37;;;21.90;1.00;;;;;;5072110;28;20450;-69
2021/08/16 10:52:04;;;;;;;58.13;2.70;;;21.90;1.00;;;;;;5072397;28;20571;-69
2021/08/16 10:54:32;;;;;;;57.90;2.90;;;22.00;1.00;;;;;;5072102;28;20443;-69
2021/08/16 10:57:00;;;;;;;57.73;2.30;;;22.20;1.00;;;;;;5071948;28;20474;-69
2021/08/16 10:59:29;;;;;;;58.10;2.60;;;22.20;1.00;;;;;;5071989;28;20901;-70
2021/08/16 11:01:57;;;;;;;57.70;2.30;;;22.10;1.00;;;;;;5072074;28;20470;-70
2021/08/16 11:04:31;;;;;;;57.33;2.30;;;22.00;1.00;;;;;;5071774;28;20554;-70
2021/08/16 11:07:01;;;;;;;57.87;2.50;;;22.10;1.00;;;;;;5072158;28;20451;-69
2021/08/16 11:09:29;;;;;;;57.77;2.60;;;22.20;1.00;;;;;;5071741;28;20446;-70
2021/08/16 11:12:02;;;;;;;58.20;2.50;;;22.50;1.00;;;;;;5071713;28;20478;-70
2021/08/16 11:14:29;;;;;;;57.97;2.60;;;22.70;1.00;;;;;;5072092;28;20450;-70
2021/08/16 11:16:58;;;;;;;57.70;2.80;;;22.80;1.00;;;;;;5071919;28;20456;-70
2021/08/16 11:19:26;;;;;;;57.77;2.30;;;22.90;1.00;;;;;;5071649;28;20519;-70
2021/08/16 11:21:56;;;;;;;57.87;2.20;;;23.10;1.00;;;;;;5071680;28;20475;-70
2021/08/16 11:24:32;;;;;;;58.20;2.50;;;24.00;1.00;;;;;;5071787;28;20451;-70
2021/08/16 11:26:59;;;;;;;57.33;2.20;;;24.80;1.00;;;;;;5072196;28;20457;-71
2021/08/16 11:29:27;;;;;;;58.90;3.93;;;25.20;1.00;;;;;;5071689;28;20453;-71
2021/08/16 11:31:58;;;;;;;57.70;2.10;;;26.00;1.00;;;;;;5071717;28;20494;-71
2021/08/16 11:34:27;;;;;;;57.67;2.27;;;27.80;1.00;;;;;;5071849;28;20451;-71
2021/08/16 11:36:56;;;;;;;57.80;2.20;;;29.80;1.00;;;;;;5071927;28;20818;-71
2021/08/16 11:39:31;;;;;;;57.77;2.40;;;30.40;1.00;;;;;;5071469;28;20532;-70
2021/08/16 11:41:59;;;;;;;58.50;2.17;;;29.80;1.00;;;;;;5071658;28;20499;-70
2021/08/16 11:44:27;;;;;;;57.97;2.30;;;28.70;1.00;;;;;;5071959;28;20447;-71
2021/08/16 11:46:54;;;;;;;58.87;2.77;;;27.70;1.00;;;;;;5071727;28;20936;-71
2021/08/16 11:49:25;;;;;;;58.00;2.37;;;26.80;1.00;;;;;;5071232;28;21038;-71
2021/08/16 11:51:52;;;;;;;57.90;2.40;;;26.20;1.00;;;;;;5071351;28;20465;-71
2021/08/16 11:54:28;;;;;;;58.67;3.33;;;26.20;1.00;;;;;;5071573;28;20821;-71
2021/08/16 11:56:56;;;;;;;57.57;2.20;;;28.00;1.00;;;;;;5071585;28;20532;-71
2021/08/16 11:59:23;;;;;;;57.80;2.33;;;30.00;1.00;;;;;;5073513;28;20483;-71
2021/08/16 12:01:50;;;;;;;57.57;2.20;;;31.50;1.00;;;;;;5075140;28;20558;-71
2021/08/16 12:04:18;;;;;;;58.00;2.30;;;32.50;1.00;;;;;;5075224;28;20469;-71
2021/08/16 12:06:50;;;;;;;57.43;2.40;;;32.70;1.00;;;;;;5075547;28;20479;-71
2021/08/16 12:09:17;;;;;;;57.23;2.10;;;32.70;1.00;;;;;;5074992;28;20454;-70
2021/08/16 12:11:57;;;;;;;57.30;2.10;;;33.20;1.00;;;;;;5075068;28;20562;-71
2021/08/16 12:14:28;;;;;;;57.70;2.63;;;33.20;1.00;;;;;;5075017;28;20550;-71
2021/08/16 12:16:55;;;;;;;57.37;2.50;;;32.70;1.00;;;;;;5075053;28;20454;-71
2021/08/16 12:19:23;;;;;;;57.53;2.50;;;32.10;1.00;;;;;;5074530;28;20479;-71
2021/08/16 12:22:01;;;;;;;57.40;2.10;;;31.50;1.00;;;;;;5074928;28;20562;-71
2021/08/16 12:24:28;;;;;;;57.37;2.20;;;31.70;1.00;;;;;;5074920;28;20534;-71
2021/08/16 12:27:02;;;;;;;57.60;2.30;;;31.50;1.00;;;;;;5074682;28;20454;-71
2021/08/16 12:29:29;;;;;;;57.27;2.47;;;30.80;1.00;;;;;;5074784;28;20466;-71
2021/08/16 12:31:56;;;;;;;57.60;2.50;;;30.40;1.00;;;;;;5074805;28;20550;-71
2021/08/16 12:34:34;;;;;;;57.63;2.23;;;30.30;1.00;;;;;;5074922;28;20519;-70
2021/08/16 12:37:01;;;;;;;59.23;2.77;;;31.00;1.00;;;;;;5074535;28;20446;-71
2021/08/16 12:39:33;;;;;;;57.33;2.03;;;32.00;1.00;;;;;;5074221;28;21007;-71
2021/08/16 12:42:09;;;;;;;56.97;2.03;;;33.40;1.00;;;;;;5074734;28;20477;-71
2021/08/16 12:44:38;;;;;;;57.50;2.40;;;34.20;1.00;;;;;;5074487;28;20506;-71
2021/08/16 12:47:07;;;;;;;58.00;2.40;;;33.40;1.00;;;;;;5074909;28;20474;-70